sensor_id;sensor_type;location;lat;lon;timestamp;pressure;altitude;pressure_sealevel;temperature;humidity
64189;BME280;50493;50.970;10.082;2022-08-04T00:02:04;99089.00;;;26.74;36.94
64189;BME280;50493;50.970;10.082;2022-08-04T00:04:36;99095.81;;;26.68;36.86
64189;BME280;50493;50.970;10.082;2022-08-04T00:07:07;99090.16;;;26.62;37.13
64189;BME280;50493;50.970;10.082;2022-08-04T00:09:38;99093.59;;;26.54;37.09
64189;BME280;50493;50.970;10.082;2022-08-04T00:12:09;99091.63;;;26.46;37.25
64189;BME280;50493;50.970;10.082;2022-08-04T00:14:37;99094.44;;;26.45;37.25
64189;BME280;50493;50.970;10.082;2022-08-04T00:17:06;99091.63;;;26.36;37.23
64189;BME280;50493;50.970;10.082;2022-08-04T00:19:37;99098.25;;;26.32;37.18
64189;BME280;50493;50.970;10.082;2022-08-04T00:22:07;99099.91;;;26.23;37.44
64189;BME280;50493;50.970;10.082;2022-08-04T00:24:33;99096.13;;;26.16;37.63
64189;BME280;50493;50.970;10.082;2022-08-04T00:26:59;99092.28;;;26.09;37.72
64189;BME280;50493;50.970;10.082;2022-08-04T00:29:26;99095.25;;;26.06;37.91
64189;BME280;50493;50.970;10.082;2022-08-04T00:31:54;99092.72;;;26.04;37.70
64189;BME280;50493;50.970;10.082;2022-08-04T00:34:19;99098.78;;;25.97;37.69
64189;BME280;50493;50.970;10.082;2022-08-04T00:36:45;99100.03;;;25.93;37.91
64189;BME280;50493;50.970;10.082;2022-08-04T00:39:12;99095.50;;;25.83;37.90
64189;BME280;50493;50.970;10.082;2022-08-04T00:41:48;99096.66;;;25.81;38.06
64189;BME280;50493;50.970;10.082;2022-08-04T00:44:28;99096.63;;;25.71;38.23
64189;BME280;50493;50.970;10.082;2022-08-04T00:47:03;99096.44;;;25.63;38.06
64189;BME280;50493;50.970;10.082;2022-08-04T00:49:47;99096.00;;;25.57;38.50
64189;BME280;50493;50.970;10.082;2022-08-04T00:52:27;99100.22;;;25.50;38.68
64189;BME280;50493;50.970;10.082;2022-08-04T00:55:12;99095.38;;;25.44;38.38
64189;BME280;50493;50.970;10.082;2022-08-04T00:57:51;99098.47;;;25.39;38.51
64189;BME280;50493;50.970;10.082;2022-08-04T01:00:21;99096.75;;;25.29;38.90
64189;BME280;50493;50.970;10.082;2022-08-04T01:02:58;99093.38;;;25.27;38.66
64189;BME280;50493;50.970;10.082;2022-08-04T01:05:33;99099.25;;;25.20;38.75
64189;BME280;50493;50.970;10.082;2022-08-04T01:08:23;99099.09;;;25.12;39.01
64189;BME280;50493;50.970;10.082;2022-08-04T01:10:58;99097.47;;;25.00;39.20
64189;BME280;50493;50.970;10.082;2022-08-04T01:13:47;99087.28;;;24.94;39.46
64189;BME280;50493;50.970;10.082;2022-08-04T01:16:23;99087.84;;;24.87;39.67
64189;BME280;50493;50.970;10.082;2022-08-04T01:18:54;99086.50;;;24.82;39.66
64189;BME280;50493;50.970;10.082;2022-08-04T01:21:43;99092.25;;;24.77;39.27
64189;BME280;50493;50.970;10.082;2022-08-04T01:24:29;99096.50;;;24.80;39.85
64189;BME280;50493;50.970;10.082;2022-08-04T01:27:05;99100.16;;;24.79;39.16
64189;BME280;50493;50.970;10.082;2022-08-04T01:29:33;99096.19;;;24.73;39.49
64189;BME280;50493;50.970;10.082;2022-08-04T01:32:03;99095.03;;;24.66;39.42
64189;BME280;50493;50.970;10.082;2022-08-04T01:34:33;99088.47;;;24.59;39.82
64189;BME280;50493;50.970;10.082;2022-08-04T01:37:03;99092.13;;;24.58;39.56
64189;BME280;50493;50.970;10.082;2022-08-04T01:39:34;99090.69;;;24.53;40.04
64189;BME280;50493;50.970;10.082;2022-08-04T01:42:07;99086.72;;;24.48;39.56
64189;BME280;50493;50.970;10.082;2022-08-04T01:44:35;99088.84;;;24.44;39.65
64189;BME280;50493;50.970;10.082;2022-08-04T01:47:01;99084.81;;;24.38;40.04
64189;BME280;50493;50.970;10.082;2022-08-04T01:49:28;99094.03;;;24.34;40.14
64189;BME280;50493;50.970;10.082;2022-08-04T01:51:55;99092.75;;;24.29;40.12
64189;BME280;50493;50.970;10.082;2022-08-04T01:54:22;99089.03;;;24.20;39.75
64189;BME280;50493;50.970;10.082;2022-08-04T01:56:48;99092.06;;;24.15;40.16
64189;BME280;50493;50.970;10.082;2022-08-04T01:59:17;99092.59;;;24.09;39.95
64189;BME280;50493;50.970;10.082;2022-08-04T02:01:44;99092.25;;;24.02;40.45
64189;BME280;50493;50.970;10.082;2022-08-04T02:04:12;99093.63;;;23.97;40.60
64189;BME280;50493;50.970;10.082;2022-08-04T02:06:48;99090.34;;;23.93;40.21
64189;BME280;50493;50.970;10.082;2022-08-04T02:09:20;99093.63;;;23.85;40.22
64189;BME280;50493;50.970;10.082;2022-08-04T02:11:55;99099.22;;;23.82;40.76
64189;BME280;50493;50.970;10.082;2022-08-04T02:14:28;99097.91;;;23.77;40.38
64189;BME280;50493;50.970;10.082;2022-08-04T02:17:11;99097.75;;;23.67;40.56
64189;BME280;50493;50.970;10.082;2022-08-04T02:19:45;99094.66;;;23.62;40.76
64189;BME280;50493;50.970;10.082;2022-08-04T02:22:17;99098.53;;;23.58;40.88
64189;BME280;50493;50.970;10.082;2022-08-04T02:24:48;99096.56;;;23.60;40.57
64189;BME280;50493;50.970;10.082;2022-08-04T02:27:15;99091.50;;;23.56;40.53
64189;BME280;50493;50.970;10.082;2022-08-04T02:29:48;99095.59;;;23.49;41.16
64189;BME280;50493;50.970;10.082;2022-08-04T02:32:20;99088.13;;;23.43;40.71
64189;BME280;50493;50.970;10.082;2022-08-04T02:34:53;99080.84;;;23.34;40.79
64189;BME280;50493;50.970;10.082;2022-08-04T02:37:23;99082.81;;;23.32;41.19
64189;BME280;50493;50.970;10.082;2022-08-04T02:39:52;99079.16;;;23.33;40.81
64189;BME280;50493;50.970;10.082;2022-08-04T02:42:18;99076.03;;;23.28;41.29
64189;BME280;50493;50.970;10.082;2022-08-04T02:44:48;99072.50;;;23.27;41.25
64189;BME280;50493;50.970;10.082;2022-08-04T02:47:17;99081.34;;;23.28;40.55
64189;BME280;50493;50.970;10.082;2022-08-04T02:49:44;99074.44;;;23.25;40.62
64189;BME280;50493;50.970;10.082;2022-08-04T02:52:12;99077.97;;;23.14;40.69
64189;BME280;50493;50.970;10.082;2022-08-04T02:54:40;99075.41;;;23.13;41.40
64189;BME280;50493;50.970;10.082;2022-08-04T02:57:08;99075.78;;;23.08;41.09
64189;BME280;50493;50.970;10.082;2022-08-04T02:59:43;99076.03;;;23.05;40.95
64189;BME280;50493;50.970;10.082;2022-08-04T03:02:35;99069.22;;;23.01;41.30
64189;BME280;50493;50.970;10.082;2022-08-04T03:05:09;99068.84;;;22.94;41.31
64189;BME280;50493;50.970;10.082;2022-08-04T03:11:04;99063.59;;;22.81;41.25
64189;BME280;50493;50.970;10.082;2022-08-04T03:13:42;99067.09;;;22.70;41.76
64189;BME280;50493;50.970;10.082;2022-08-04T03:16:28;99070.13;;;22.66;41.85
64189;BME280;50493;50.970;10.082;2022-08-04T03:19:20;99072.31;;;22.61;41.82
64189;BME280;50493;50.970;10.082;2022-08-04T03:22:04;99063.81;;;22.55;41.83
64189;BME280;50493;50.970;10.082;2022-08-04T03:25:02;99068.63;;;22.50;41.90
64189;BME280;50493;50.970;10.082;2022-08-04T03:27:53;99069.63;;;22.49;41.80
64189;BME280;50493;50.970;10.082;2022-08-04T03:30:28;99077.94;;;22.45;41.72
64189;BME280;50493;50.970;10.082;2022-08-04T03:33:23;99079.91;;;22.43;42.07
64189;BME280;50493;50.970;10.082;2022-08-04T03:36:12;99078.75;;;22.34;42.36
64189;BME280;50493;50.970;10.082;2022-08-04T03:45:24;99075.53;;;22.17;42.39
64189;BME280;50493;50.970;10.082;2022-08-04T03:51:05;99079.41;;;22.13;42.17
64189;BME280;50493;50.970;10.082;2022-08-04T03:54:13;99075.03;;;22.12;42.12
64189;BME280;50493;50.970;10.082;2022-08-04T04:00:03;99080.59;;;22.09;42.29
64189;BME280;50493;50.970;10.082;2022-08-04T04:02:57;99077.28;;;22.05;42.17
64189;BME280;50493;50.970;10.082;2022-08-04T04:11:29;99069.59;;;22.14;41.98
64189;BME280;50493;50.970;10.082;2022-08-04T04:14:09;99075.91;;;22.13;41.75
64189;BME280;50493;50.970;10.082;2022-08-04T04:16:46;99085.41;;;22.04;42.13
64189;BME280;50493;50.970;10.082;2022-08-04T04:19:22;99076.47;;;22.05;41.82
64189;BME280;50493;50.970;10.082;2022-08-04T04:22:11;99075.97;;;22.11;41.58
64189;BME280;50493;50.970;10.082;2022-08-04T04:24:59;99070.66;;;22.11;41.89
64189;BME280;50493;50.970;10.082;2022-08-04T04:27:36;99081.09;;;22.14;41.54
64189;BME280;50493;50.970;10.082;2022-08-04T04:30:06;99075.19;;;22.22;41.52
64189;BME280;50493;50.970;10.082;2022-08-04T04:32:42;99076.28;;;22.19;41.15
64189;BME280;50493;50.970;10.082;2022-08-04T04:35:20;99078.13;;;22.77;40.07
64189;BME280;50493;50.970;10.082;2022-08-04T04:37:56;99072.78;;;23.68;38.07
64189;BME280;50493;50.970;10.082;2022-08-04T04:40:33;99074.13;;;24.06;37.02
64189;BME280;50493;50.970;10.082;2022-08-04T04:43:28;99074.81;;;24.19;36.62
64189;BME280;50493;50.970;10.082;2022-08-04T04:46:02;99072.72;;;24.55;35.80
64189;BME280;50493;50.970;10.082;2022-08-04T04:48:36;99084.31;;;24.45;37.62
64189;BME280;50493;50.970;10.082;2022-08-04T04:51:09;99083.72;;;24.41;36.32
64189;BME280;50493;50.970;10.082;2022-08-04T04:53:44;99081.75;;;24.85;37.17
64189;BME280;50493;50.970;10.082;2022-08-04T04:56:16;99078.31;;;24.73;35.91
64189;BME280;50493;50.970;10.082;2022-08-04T04:58:44;99086.53;;;25.03;34.64
64189;BME280;50493;50.970;10.082;2022-08-04T05:01:38;99084.19;;;25.19;34.24
64189;BME280;50493;50.970;10.082;2022-08-04T05:07:09;99084.81;;;25.43;33.82
64189;BME280;50493;50.970;10.082;2022-08-04T05:09:52;99082.75;;;25.46;33.92
64189;BME280;50493;50.970;10.082;2022-08-04T05:15:11;99080.31;;;25.74;35.45
64189;BME280;50493;50.970;10.082;2022-08-04T05:17:39;99090.44;;;25.80;35.42
64189;BME280;50493;50.970;10.082;2022-08-04T05:20:09;99085.28;;;26.28;35.04
64189;BME280;50493;50.970;10.082;2022-08-04T05:22:38;99083.78;;;26.82;33.31
64189;BME280;50493;50.970;10.082;2022-08-04T05:25:08;99089.38;;;27.46;34.38
64189;BME280;50493;50.970;10.082;2022-08-04T05:27:39;99090.44;;;27.99;35.00
64189;BME280;50493;50.970;10.082;2022-08-04T05:30:10;99092.06;;;28.46;33.88
64189;BME280;50493;50.970;10.082;2022-08-04T05:32:42;99085.16;;;27.89;33.71
64189;BME280;50493;50.970;10.082;2022-08-04T05:35:13;99088.63;;;27.44;36.72
64189;BME280;50493;50.970;10.082;2022-08-04T05:37:40;99085.97;;;26.49;38.17
64189;BME280;50493;50.970;10.082;2022-08-04T05:40:10;99093.88;;;26.41;39.13
64189;BME280;50493;50.970;10.082;2022-08-04T05:42:38;99087.81;;;27.06;38.73
64189;BME280;50493;50.970;10.082;2022-08-04T05:45:06;99091.56;;;26.66;38.69
64189;BME280;50493;50.970;10.082;2022-08-04T05:47:34;99090.97;;;27.29;36.71
64189;BME280;50493;50.970;10.082;2022-08-04T05:50:00;99092.59;;;27.50;36.61
64189;BME280;50493;50.970;10.082;2022-08-04T05:52:27;99083.16;;;27.36;35.79
64189;BME280;50493;50.970;10.082;2022-08-04T05:54:54;99084.91;;;27.83;36.40
64189;BME280;50493;50.970;10.082;2022-08-04T05:57:20;99079.13;;;28.05;34.76
64189;BME280;50493;50.970;10.082;2022-08-04T05:59:45;99073.03;;;28.21;32.92
64189;BME280;50493;50.970;10.082;2022-08-04T06:02:13;99078.34;;;28.57;32.45
64189;BME280;50493;50.970;10.082;2022-08-04T06:04:44;99078.75;;;29.15;31.39
64189;BME280;50493;50.970;10.082;2022-08-04T06:07:12;99082.81;;;28.67;34.18
64189;BME280;50493;50.970;10.082;2022-08-04T06:09:38;99074.56;;;28.24;32.74
64189;BME280;50493;50.970;10.082;2022-08-04T06:12:07;99079.59;;;28.63;31.13
64189;BME280;50493;50.970;10.082;2022-08-04T06:14:37;99077.22;;;28.60;31.35
64189;BME280;50493;50.970;10.082;2022-08-04T06:17:04;99078.13;;;28.69;31.25
64189;BME280;50493;50.970;10.082;2022-08-04T06:19:34;99070.19;;;29.63;32.82
64189;BME280;50493;50.970;10.082;2022-08-04T06:22:03;99069.50;;;28.91;34.34
64189;BME280;50493;50.970;10.082;2022-08-04T06:24:30;99066.03;;;30.10;31.66
64189;BME280;50493;50.970;10.082;2022-08-04T06:26:56;99069.16;;;31.12;31.16
64189;BME280;50493;50.970;10.082;2022-08-04T06:29:23;99066.13;;;31.07;30.97
64189;BME280;50493;50.970;10.082;2022-08-04T06:31:56;99063.16;;;32.19;29.45
64189;BME280;50493;50.970;10.082;2022-08-04T06:34:27;99067.84;;;31.48;29.89
64189;BME280;50493;50.970;10.082;2022-08-04T06:36:54;99068.28;;;32.14;30.28
64189;BME280;50493;50.970;10.082;2022-08-04T06:39:23;99071.44;;;32.41;29.30
64189;BME280;50493;50.970;10.082;2022-08-04T06:41:49;99062.97;;;33.12;28.22
64189;BME280;50493;50.970;10.082;2022-08-04T06:44:18;99059.03;;;33.81;27.04
64189;BME280;50493;50.970;10.082;2022-08-04T06:46:44;99056.84;;;32.50;28.64
64189;BME280;50493;50.970;10.082;2022-08-04T06:49:10;99062.47;;;33.23;27.42
64189;BME280;50493;50.970;10.082;2022-08-04T06:51:37;99061.94;;;33.13;27.48
64189;BME280;50493;50.970;10.082;2022-08-04T06:54:04;99059.50;;;33.18;27.15
64189;BME280;50493;50.970;10.082;2022-08-04T06:56:33;99062.91;;;34.15;25.27
64189;BME280;50493;50.970;10.082;2022-08-04T06:58:59;99057.88;;;34.34;26.77
64189;BME280;50493;50.970;10.082;2022-08-04T07:01:26;99053.34;;;34.41;24.70
64189;BME280;50493;50.970;10.082;2022-08-04T07:03:52;99056.47;;;35.43;22.89
64189;BME280;50493;50.970;10.082;2022-08-04T07:06:20;99059.78;;;34.68;23.94
64189;BME280;50493;50.970;10.082;2022-08-04T07:08:45;99059.09;;;34.88;23.19
64189;BME280;50493;50.970;10.082;2022-08-04T07:11:11;99052.16;;;35.20;23.17
64189;BME280;50493;50.970;10.082;2022-08-04T07:13:39;99051.25;;;35.48;23.10
64189;BME280;50493;50.970;10.082;2022-08-04T07:16:06;99051.94;;;35.64;22.13
64189;BME280;50493;50.970;10.082;2022-08-04T07:18:31;99057.63;;;35.89;22.05
64189;BME280;50493;50.970;10.082;2022-08-04T07:20:57;99051.63;;;36.34;21.18
64189;BME280;50493;50.970;10.082;2022-08-04T07:23:23;99050.75;;;36.60;19.98
64189;BME280;50493;50.970;10.082;2022-08-04T07:25:49;99054.13;;;36.49;21.35
64189;BME280;50493;50.970;10.082;2022-08-04T07:28:16;99049.31;;;36.17;21.52
64189;BME280;50493;50.970;10.082;2022-08-04T07:30:44;99049.69;;;36.01;22.00
64189;BME280;50493;50.970;10.082;2022-08-04T07:33:10;99042.00;;;36.51;21.11
64189;BME280;50493;50.970;10.082;2022-08-04T07:35:36;99051.25;;;35.55;22.67
64189;BME280;50493;50.970;10.082;2022-08-04T07:38:02;99042.81;;;36.05;22.10
64189;BME280;50493;50.970;10.082;2022-08-04T07:40:28;99042.59;;;36.13;20.91
64189;BME280;50493;50.970;10.082;2022-08-04T07:42:53;99035.69;;;36.44;21.12
64189;BME280;50493;50.970;10.082;2022-08-04T07:45:19;99043.19;;;35.82;21.93
64189;BME280;50493;50.970;10.082;2022-08-04T07:47:48;99038.28;;;35.02;23.16
64189;BME280;50493;50.970;10.082;2022-08-04T07:50:14;99041.38;;;36.42;20.85
64189;BME280;50493;50.970;10.082;2022-08-04T07:52:41;99042.41;;;36.68;20.64
64189;BME280;50493;50.970;10.082;2022-08-04T07:55:07;99040.22;;;36.90;21.37
64189;BME280;50493;50.970;10.082;2022-08-04T07:57:32;99039.88;;;35.86;21.85
64189;BME280;50493;50.970;10.082;2022-08-04T07:59:58;99033.22;;;36.22;21.52
64189;BME280;50493;50.970;10.082;2022-08-04T08:02:24;99033.84;;;36.31;21.86
64189;BME280;50493;50.970;10.082;2022-08-04T08:04:51;99020.59;;;37.34;20.33
64189;BME280;50493;50.970;10.082;2022-08-04T08:07:17;99022.63;;;37.84;19.88
64189;BME280;50493;50.970;10.082;2022-08-04T08:09:43;99020.09;;;35.44;22.56
64189;BME280;50493;50.970;10.082;2022-08-04T08:12:08;99024.47;;;37.19;20.35
64189;BME280;50493;50.970;10.082;2022-08-04T08:14:36;99023.16;;;36.03;20.52
64189;BME280;50493;50.970;10.082;2022-08-04T08:17:05;99021.50;;;35.27;22.36
64189;BME280;50493;50.970;10.082;2022-08-04T08:19:30;99019.28;;;35.02;23.10
64189;BME280;50493;50.970;10.082;2022-08-04T08:22:13;99014.13;;;35.20;22.18
64189;BME280;50493;50.970;10.082;2022-08-04T08:24:39;99012.91;;;35.23;22.61
64189;BME280;50493;50.970;10.082;2022-08-04T08:27:05;99010.47;;;36.96;20.46
64189;BME280;50493;50.970;10.082;2022-08-04T08:29:32;99013.75;;;37.24;20.55
64189;BME280;50493;50.970;10.082;2022-08-04T08:31:59;99014.38;;;36.41;20.95
64189;BME280;50493;50.970;10.082;2022-08-04T08:34:25;99005.81;;;37.62;19.09
64189;BME280;50493;50.970;10.082;2022-08-04T08:36:57;99004.09;;;35.89;21.10
64189;BME280;50493;50.970;10.082;2022-08-04T08:39:32;98993.63;;;35.11;22.32
64189;BME280;50493;50.970;10.082;2022-08-04T08:45:47;99002.19;;;35.70;19.89
64189;BME280;50493;50.970;10.082;2022-08-04T08:48:47;98990.81;;;35.39;20.60
64189;BME280;50493;50.970;10.082;2022-08-04T08:51:29;98989.56;;;35.42;21.18
64189;BME280;50493;50.970;10.082;2022-08-04T08:54:16;98992.56;;;35.74;20.55
64189;BME280;50493;50.970;10.082;2022-08-04T08:56:57;98997.50;;;35.37;20.55
64189;BME280;50493;50.970;10.082;2022-08-04T08:59:42;98993.81;;;37.69;19.13
64189;BME280;50493;50.970;10.082;2022-08-04T09:05:49;98992.59;;;36.41;20.82
64189;BME280;50493;50.970;10.082;2022-08-04T09:08:28;99000.84;;;35.32;20.99
64189;BME280;50493;50.970;10.082;2022-08-04T09:11:02;98996.28;;;34.63;22.66
64189;BME280;50493;50.970;10.082;2022-08-04T09:13:36;98993.78;;;34.61;23.22
64189;BME280;50493;50.970;10.082;2022-08-04T09:16:08;98990.06;;;36.60;20.54
64189;BME280;50493;50.970;10.082;2022-08-04T09:18:40;98988.53;;;38.00;18.71
64189;BME280;50493;50.970;10.082;2022-08-04T09:21:16;98986.47;;;38.46;17.60
64189;BME280;50493;50.970;10.082;2022-08-04T09:23:48;98979.97;;;38.47;17.70
64189;BME280;50493;50.970;10.082;2022-08-04T09:26:20;98983.91;;;39.25;16.86
64189;BME280;50493;50.970;10.082;2022-08-04T09:28:53;98987.88;;;39.71;15.83
64189;BME280;50493;50.970;10.082;2022-08-04T09:31:23;98987.16;;;36.01;19.58
64189;BME280;50493;50.970;10.082;2022-08-04T09:33:59;98977.03;;;35.48;20.82
64189;BME280;50493;50.970;10.082;2022-08-04T09:36:31;98978.56;;;34.32;21.12
64189;BME280;50493;50.970;10.082;2022-08-04T09:39:04;98971.66;;;34.64;22.23
64189;BME280;50493;50.970;10.082;2022-08-04T09:41:35;98972.03;;;34.89;22.37
64189;BME280;50493;50.970;10.082;2022-08-04T09:44:15;98977.25;;;37.25;21.24
64189;BME280;50493;50.970;10.082;2022-08-04T09:46:54;98971.13;;;35.31;21.33
64189;BME280;50493;50.970;10.082;2022-08-04T09:49:28;98970.38;;;35.64;19.96
64189;BME280;50493;50.970;10.082;2022-08-04T09:52:00;98971.22;;;34.96;22.31
64189;BME280;50493;50.970;10.082;2022-08-04T09:54:42;98962.72;;;35.12;21.64
64189;BME280;50493;50.970;10.082;2022-08-04T09:57:13;98960.16;;;36.13;20.35
64189;BME280;50493;50.970;10.082;2022-08-04T09:59:50;98970.66;;;35.82;21.35
64189;BME280;50493;50.970;10.082;2022-08-04T10:02:20;98964.50;;;36.67;19.19
64189;BME280;50493;50.970;10.082;2022-08-04T10:04:46;98946.78;;;38.24;17.96
64189;BME280;50493;50.970;10.082;2022-08-04T10:10:32;98963.31;;;37.02;19.71
64189;BME280;50493;50.970;10.082;2022-08-04T10:13:13;98948.66;;;39.47;16.42
64189;BME280;50493;50.970;10.082;2022-08-04T10:15:47;98946.53;;;39.49;15.67
64189;BME280;50493;50.970;10.082;2022-08-04T10:18:27;98943.78;;;38.07;20.75
64189;BME280;50493;50.970;10.082;2022-08-04T10:21:05;98945.19;;;39.82;16.64
64189;BME280;50493;50.970;10.082;2022-08-04T10:23:37;98937.66;;;37.87;17.94
64189;BME280;50493;50.970;10.082;2022-08-04T10:26:23;98938.09;;;38.09;17.14
64189;BME280;50493;50.970;10.082;2022-08-04T10:28:55;98937.13;;;40.35;18.04
64189;BME280;50493;50.970;10.082;2022-08-04T10:31:27;98938.09;;;38.90;18.05
64189;BME280;50493;50.970;10.082;2022-08-04T10:33:57;98934.50;;;39.38;19.00
64189;BME280;50493;50.970;10.082;2022-08-04T10:36:30;98941.91;;;40.92;16.04
64189;BME280;50493;50.970;10.082;2022-08-04T10:39:02;98936.28;;;40.99;15.31
64189;BME280;50493;50.970;10.082;2022-08-04T10:41:36;98934.72;;;40.50;16.41
64189;BME280;50493;50.970;10.082;2022-08-04T10:44:16;98930.41;;;41.53;16.07
64189;BME280;50493;50.970;10.082;2022-08-04T10:46:52;98924.38;;;40.52;17.44
64189;BME280;50493;50.970;10.082;2022-08-04T10:49:22;98915.97;;;40.18;19.61
64189;BME280;50493;50.970;10.082;2022-08-04T10:51:50;98913.13;;;40.78;19.16
64189;BME280;50493;50.970;10.082;2022-08-04T10:54:22;98910.94;;;40.80;15.27
64189;BME280;50493;50.970;10.082;2022-08-04T10:56:52;98914.34;;;40.99;14.90
64189;BME280;50493;50.970;10.082;2022-08-04T10:59:23;98908.88;;;39.63;15.79
64189;BME280;50493;50.970;10.082;2022-08-04T11:01:56;98904.19;;;38.61;17.18
64189;BME280;50493;50.970;10.082;2022-08-04T11:04:30;98896.22;;;38.40;17.45
64189;BME280;50493;50.970;10.082;2022-08-04T11:07:00;98897.22;;;39.56;18.51
64189;BME280;50493;50.970;10.082;2022-08-04T11:09:27;98897.88;;;39.39;21.09
64189;BME280;50493;50.970;10.082;2022-08-04T11:11:56;98904.38;;;40.40;15.88
64189;BME280;50493;50.970;10.082;2022-08-04T11:14:28;98902.81;;;40.44;19.19
64189;BME280;50493;50.970;10.082;2022-08-04T11:17:00;98896.41;;;38.95;16.75
64189;BME280;50493;50.970;10.082;2022-08-04T11:19:31;98880.66;;;38.78;15.61
64189;BME280;50493;50.970;10.082;2022-08-04T11:22:04;98894.88;;;40.07;16.06
64189;BME280;50493;50.970;10.082;2022-08-04T11:24:35;98890.69;;;40.40;18.64
64189;BME280;50493;50.970;10.082;2022-08-04T11:27:04;98904.16;;;40.30;19.88
64189;BME280;50493;50.970;10.082;2022-08-04T11:29:39;98900.75;;;39.45;20.91
64189;BME280;50493;50.970;10.082;2022-08-04T11:32:13;98906.38;;;40.56;18.51
64189;BME280;50493;50.970;10.082;2022-08-04T11:34:46;98900.91;;;39.62;21.21
64189;BME280;50493;50.970;10.082;2022-08-04T11:37:18;98895.13;;;38.97;22.27
64189;BME280;50493;50.970;10.082;2022-08-04T11:39:49;98895.19;;;39.63;15.37
64189;BME280;50493;50.970;10.082;2022-08-04T11:42:19;98892.38;;;39.70;20.81
64189;BME280;50493;50.970;10.082;2022-08-04T11:44:48;98898.16;;;39.62;20.47
64189;BME280;50493;50.970;10.082;2022-08-04T11:47:22;98894.88;;;38.87;22.21
64189;BME280;50493;50.970;10.082;2022-08-04T11:49:54;98884.16;;;39.94;21.21
64189;BME280;50493;50.970;10.082;2022-08-04T11:52:23;98884.22;;;39.39;16.89
64189;BME280;50493;50.970;10.082;2022-08-04T11:54:50;98887.63;;;38.44;16.88
64189;BME280;50493;50.970;10.082;2022-08-04T11:57:16;98884.25;;;39.51;15.00
64189;BME280;50493;50.970;10.082;2022-08-04T11:59:42;98881.84;;;39.43;18.71
64189;BME280;50493;50.970;10.082;2022-08-04T12:02:32;98886.63;;;39.48;20.55
64189;BME280;50493;50.970;10.082;2022-08-04T12:05:02;98885.91;;;39.52;18.04
64189;BME280;50493;50.970;10.082;2022-08-04T12:07:40;98886.81;;;38.36;16.55
64189;BME280;50493;50.970;10.082;2022-08-04T12:10:17;98883.75;;;37.64;17.16
64189;BME280;50493;50.970;10.082;2022-08-04T12:12:49;98880.84;;;37.27;17.04
64189;BME280;50493;50.970;10.082;2022-08-04T12:15:22;98875.94;;;37.03;22.78
64189;BME280;50493;50.970;10.082;2022-08-04T12:17:56;98882.16;;;37.17;20.50
64189;BME280;50493;50.970;10.082;2022-08-04T12:20:28;98879.03;;;36.75;22.47
64189;BME280;50493;50.970;10.082;2022-08-04T12:22:55;98872.75;;;37.96;23.04
64189;BME280;50493;50.970;10.082;2022-08-04T12:25:25;98866.50;;;38.32;23.54
64189;BME280;50493;50.970;10.082;2022-08-04T12:27:57;98877.03;;;38.66;23.17
64189;BME280;50493;50.970;10.082;2022-08-04T12:30:26;98866.78;;;38.80;18.50
64189;BME280;50493;50.970;10.082;2022-08-04T12:33:01;98874.84;;;39.05;22.05
64189;BME280;50493;50.970;10.082;2022-08-04T12:35:32;98858.91;;;39.44;15.61
64189;BME280;50493;50.970;10.082;2022-08-04T12:38:01;98864.44;;;38.83;17.17
64189;BME280;50493;50.970;10.082;2022-08-04T12:40:30;98863.88;;;38.93;22.68
64189;BME280;50493;50.970;10.082;2022-08-04T12:43:03;98854.66;;;38.01;16.14
64189;BME280;50493;50.970;10.082;2022-08-04T12:45:31;98858.53;;;36.66;24.73
64189;BME280;50493;50.970;10.082;2022-08-04T12:47:59;98846.84;;;38.61;19.75
64189;BME280;50493;50.970;10.082;2022-08-04T12:50:26;98858.53;;;36.66;17.70
64189;BME280;50493;50.970;10.082;2022-08-04T12:52:55;98853.63;;;36.88;17.10
64189;BME280;50493;50.970;10.082;2022-08-04T12:55:22;98850.97;;;37.89;17.50
64189;BME280;50493;50.970;10.082;2022-08-04T12:57:50;98846.09;;;38.16;18.31
64189;BME280;50493;50.970;10.082;2022-08-04T13:00:27;98847.47;;;38.25;22.99
64189;BME280;50493;50.970;10.082;2022-08-04T13:02:53;98847.50;;;38.44;16.92
64189;BME280;50493;50.970;10.082;2022-08-04T13:05:25;98850.00;;;37.58;17.09
64189;BME280;50493;50.970;10.082;2022-08-04T13:07:54;98848.31;;;38.07;21.20
64189;BME280;50493;50.970;10.082;2022-08-04T13:10:21;98852.03;;;38.50;20.47
64189;BME280;50493;50.970;10.082;2022-08-04T13:12:53;98848.72;;;37.61;23.63
64189;BME280;50493;50.970;10.082;2022-08-04T13:15:22;98848.31;;;37.82;21.08
64189;BME280;50493;50.970;10.082;2022-08-04T13:17:54;98835.50;;;38.27;24.00
64189;BME280;50493;50.970;10.082;2022-08-04T13:20:26;98840.88;;;39.01;16.20
64189;BME280;50493;50.970;10.082;2022-08-04T13:22:58;98837.69;;;38.55;16.67
64189;BME280;50493;50.970;10.082;2022-08-04T13:25:27;98842.28;;;39.46;15.35
64189;BME280;50493;50.970;10.082;2022-08-04T13:27:54;98838.63;;;39.87;15.23
64189;BME280;50493;50.970;10.082;2022-08-04T13:30:20;98829.22;;;39.71;14.90
64189;BME280;50493;50.970;10.082;2022-08-04T13:32:46;98835.53;;;39.96;15.25
64189;BME280;50493;50.970;10.082;2022-08-04T13:35:12;98840.81;;;40.26;20.93
64189;BME280;50493;50.970;10.082;2022-08-04T13:37:39;98834.50;;;40.49;15.31
64189;BME280;50493;50.970;10.082;2022-08-04T13:40:09;98832.44;;;40.56;17.66
64189;BME280;50493;50.970;10.082;2022-08-04T13:42:36;98825.75;;;40.23;15.87
64189;BME280;50493;50.970;10.082;2022-08-04T13:45:05;98825.09;;;40.74;14.80
64189;BME280;50493;50.970;10.082;2022-08-04T13:47:34;98827.78;;;40.86;15.62
64189;BME280;50493;50.970;10.082;2022-08-04T13:50:07;98828.38;;;40.18;15.92
64189;BME280;50493;50.970;10.082;2022-08-04T13:52:34;98827.75;;;40.69;13.40
64189;BME280;50493;50.970;10.082;2022-08-04T13:55:01;98826.94;;;40.28;21.70